Time;durP1;ratioP1;P1;durP2;ratioP2;P2;SDS_P1;SDS_P2;PMS_P1;PMS_P2;Temp;Humidity;BMP_temperature;BMP_pressure;BME280_temperature;BME280_humidity;BME280_pressure;Samples;Min_cycle;Max_cycle;Signal;HPM_P1;HPM_P2
2022/03/30 00:03:12;;;;;;;14.37;8.10;;;9.80;99.90;;;;;;486695;244;27762;-72
2022/03/30 00:05:13;;;;;;;13.80;8.90;;;9.70;99.90;;;;;;486734;242;27842;-72
2022/03/30 00:07:15;;;;;;;15.10;9.00;;;9.70;99.90;;;;;;486715;242;27845;-72
2022/03/30 00:09:22;;;;;;;16.63;9.10;;;9.70;99.90;;;;;;486664;244;27967;-72
2022/03/30 00:11:23;;;;;;;11.13;7.90;;;9.70;99.90;;;;;;486765;241;28100;-72
2022/03/30 00:13:27;;;;;;;13.40;8.43;;;9.80;99.90;;;;;;486716;242;27846;-72
2022/03/30 00:15:29;;;;;;;12.20;8.30;;;9.90;99.90;;;;;;486721;243;28101;-72
2022/03/30 00:17:31;;;;;;;8.37;7.00;;;9.90;99.90;;;;;;486758;241;27794;-73
2022/03/30 00:19:31;;;;;;;10.13;6.83;;;9.90;99.90;;;;;;486661;242;28450;-72
2022/03/30 00:21:32;;;;;;;9.40;7.00;;;9.90;99.90;;;;;;486578;242;27788;-72
2022/03/30 00:23:37;;;;;;;7.63;5.93;;;9.80;99.90;;;;;;487053;241;27897;-72
2022/03/30 00:25:39;;;;;;;10.00;6.10;;;9.80;99.90;;;;;;486688;242;27854;-72
2022/03/30 00:27:54;;;;;;;8.50;6.37;;;9.70;99.90;;;;;;486663;244;27973;-72
2022/03/30 00:29:55;;;;;;;8.83;6.13;;;9.70;99.90;;;;;;486673;242;28037;-72
2022/03/30 00:31:56;;;;;;;8.00;6.20;;;9.60;99.90;;;;;;487061;242;27967;-72
2022/03/30 00:33:58;;;;;;;7.37;6.00;;;9.50;99.90;;;;;;487760;242;27838;-74
2022/03/30 00:35:59;;;;;;;10.47;7.10;;;9.40;99.90;;;;;;488484;243;28386;-73
2022/03/30 00:38:00;;;;;;;17.67;8.67;;;9.20;99.90;;;;;;488501;243;28188;-73
2022/03/30 00:40:01;;;;;;;9.23;7.73;;;9.20;99.90;;;;;;488508;243;28434;-72
2022/03/30 00:42:03;;;;;;;9.40;7.70;;;9.30;99.90;;;;;;488540;243;28183;-72
2022/03/30 00:44:04;;;;;;;9.60;6.77;;;9.40;99.90;;;;;;488501;243;27701;-72
2022/03/30 00:46:05;;;;;;;9.63;6.40;;;9.40;99.90;;;;;;488475;243;27781;-74
2022/03/30 00:48:06;;;;;;;6.93;6.23;;;9.50;99.90;;;;;;488478;243;27603;-72
2022/03/30 00:50:08;;;;;;;9.97;7.23;;;9.50;99.90;;;;;;488485;243;27737;-72
2022/03/30 00:52:09;;;;;;;7.67;6.60;;;9.60;99.90;;;;;;488519;243;27870;-73
2022/03/30 00:54:10;;;;;;;8.00;6.10;;;9.50;99.90;;;;;;488532;243;27968;-72
2022/03/30 00:56:11;;;;;;;6.20;5.57;;;9.50;99.90;;;;;;488534;243;27781;-72
2022/03/30 00:58:13;;;;;;;9.10;6.03;;;9.50;99.90;;;;;;488526;243;27668;-72
2022/03/30 01:00:15;;;;;;;6.97;5.80;;;9.50;99.90;;;;;;488497;243;27998;-73
2022/03/30 01:02:15;;;;;;;6.60;5.90;;;9.50;99.90;;;;;;488535;243;27954;-72
2022/03/30 01:04:16;;;;;;;6.53;5.47;;;9.40;99.90;;;;;;488541;243;27973;-72
2022/03/30 01:06:18;;;;;;;9.60;5.90;;;9.40;99.90;;;;;;488562;243;27887;-72
2022/03/30 01:08:19;;;;;;;9.77;5.90;;;9.40;99.90;;;;;;488565;243;27489;-72
2022/03/30 01:10:26;;;;;;;17.43;5.87;;;9.30;99.90;;;;;;488523;243;27878;-72
2022/03/30 01:12:29;;;;;;;12.20;7.60;;;9.30;99.90;;;;;;488590;243;28385;-71
2022/03/30 01:14:38;;;;;;;13.30;8.43;;;9.10;99.90;;;;;;488522;243;28353;-70
2022/03/30 01:16:39;;;;;;;9.80;7.00;;;9.00;99.90;;;;;;488171;243;27620;-72
2022/03/30 01:18:40;;;;;;;10.13;6.57;;;9.00;99.90;;;;;;488379;243;27645;-72
2022/03/30 01:20:49;;;;;;;11.90;6.20;;;9.10;99.90;;;;;;488493;243;28554;-74
2022/03/30 01:22:51;;;;;;;8.10;5.97;;;9.10;99.90;;;;;;488588;243;27933;-72
2022/03/30 01:24:55;;;;;;;8.73;6.93;;;9.10;99.90;;;;;;488588;243;27774;-72
2022/03/30 01:26:56;;;;;;;8.57;5.53;;;9.20;99.90;;;;;;488587;243;27768;-73
2022/03/30 01:29:00;;;;;;;9.43;6.27;;;9.10;99.90;;;;;;488545;243;27852;-72
2022/03/30 01:33:21;;;;;;;10.63;7.30;;;9.00;99.90;;;;;;488561;242;27941;-73
2022/03/30 01:35:22;;;;;;;10.63;6.93;;;8.90;99.90;;;;;;488547;243;27872;-72
2022/03/30 01:37:23;;;;;;;11.37;6.97;;;8.90;99.90;;;;;;488564;243;27846;-72
2022/03/30 01:39:24;;;;;;;9.83;7.00;;;8.90;99.90;;;;;;488529;243;27966;-72
2022/03/30 01:41:26;;;;;;;9.70;6.40;;;9.00;99.90;;;;;;488528;243;28406;-72
2022/03/30 01:45:31;;;;;;;8.97;7.20;;;8.90;99.90;;;;;;488575;243;27839;-72
2022/03/30 01:47:32;;;;;;;8.37;6.40;;;9.00;99.90;;;;;;488542;243;28307;-73
2022/03/30 01:49:34;;;;;;;7.90;6.50;;;9.00;99.90;;;;;;488521;243;28427;-72
2022/03/30 01:51:35;;;;;;;8.13;6.57;;;8.90;99.90;;;;;;488514;243;27918;-71
2022/03/30 01:53:36;;;;;;;6.80;5.77;;;8.90;99.90;;;;;;488545;243;27990;-72
2022/03/30 01:55:38;;;;;;;7.83;5.80;;;8.90;99.90;;;;;;488536;243;27716;-72
2022/03/30 01:57:40;;;;;;;7.30;6.20;;;9.00;99.90;;;;;;488519;243;27507;-73
2022/03/30 01:59:41;;;;;;;11.10;6.80;;;9.00;99.90;;;;;;488574;243;27874;-72
2022/03/30 02:01:45;;;;;;;9.97;5.80;;;8.80;99.90;;;;;;488345;243;27838;-73
2022/03/30 02:03:47;;;;;;;9.20;7.10;;;8.90;99.90;;;;;;488531;243;28003;-72
2022/03/30 02:05:48;;;;;;;11.00;6.87;;;8.90;99.90;;;;;;488455;243;27894;-72
2022/03/30 02:07:50;;;;;;;9.17;6.40;;;9.00;99.90;;;;;;488448;243;28309;-73
2022/03/30 02:09:52;;;;;;;6.73;5.63;;;9.00;99.90;;;;;;488523;243;28098;-72
2022/03/30 02:11:54;;;;;;;7.63;5.53;;;9.00;99.90;;;;;;488539;243;27456;-72
2022/03/30 02:13:54;;;;;;;7.10;5.93;;;9.00;99.90;;;;;;488473;243;27944;-72
2022/03/30 02:15:55;;;;;;;6.60;5.70;;;9.10;99.90;;;;;;488467;243;28384;-74
2022/03/30 02:17:59;;;;;;;6.70;5.60;;;9.00;99.90;;;;;;488496;243;28346;-72
2022/03/30 02:19:59;;;;;;;7.90;6.10;;;9.00;99.90;;;;;;488473;243;27913;-72
2022/03/30 02:22:00;;;;;;;10.10;5.23;;;9.00;99.90;;;;;;488520;243;27579;-72
2022/03/30 02:24:01;;;;;;;5.97;5.37;;;9.00;99.90;;;;;;488523;243;28425;-73
2022/03/30 02:26:07;;;;;;;6.60;5.90;;;8.90;99.90;;;;;;488511;243;28374;-72
2022/03/30 02:28:08;;;;;;;12.20;5.50;;;8.90;99.90;;;;;;488549;243;27892;-72
2022/03/30 02:30:11;;;;;;;6.37;5.07;;;9.00;99.90;;;;;;488534;243;27959;-72
2022/03/30 02:32:13;;;;;;;5.93;4.60;;;9.00;99.90;;;;;;488577;243;27940;-72
2022/03/30 02:34:14;;;;;;;5.83;5.10;;;9.00;99.90;;;;;;488491;243;27521;-72
2022/03/30 02:36:16;;;;;;;7.27;4.93;;;9.00;99.90;;;;;;488588;243;27713;-72
2022/03/30 02:38:17;;;;;;;6.33;4.77;;;9.00;99.90;;;;;;488572;243;28314;-74
2022/03/30 02:40:19;;;;;;;7.10;5.23;;;9.00;99.90;;;;;;488560;243;27600;-72
2022/03/30 02:42:28;;;;;;;6.60;5.00;;;9.00;99.90;;;;;;488565;243;28133;-73
2022/03/30 02:44:29;;;;;;;6.83;5.00;;;9.00;99.90;;;;;;488618;243;27970;-72
2022/03/30 02:46:30;;;;;;;7.03;5.20;;;9.00;99.90;;;;;;488551;243;27876;-73
2022/03/30 02:48:35;;;;;;;6.43;5.13;;;9.00;99.90;;;;;;488515;243;28015;-74
2022/03/30 02:50:36;;;;;;;9.00;5.37;;;8.90;99.90;;;;;;488486;243;28107;-71
2022/03/30 02:52:43;;;;;;;7.30;5.43;;;8.90;99.90;;;;;;488570;243;27714;-72
2022/03/30 02:54:45;;;;;;;6.90;4.87;;;8.90;99.90;;;;;;488539;243;27856;-73
2022/03/30 02:56:46;;;;;;;5.30;4.80;;;8.90;99.90;;;;;;488564;243;27834;-72
2022/03/30 02:58:47;;;;;;;8.53;5.40;;;8.90;99.90;;;;;;488551;243;27850;-72
2022/03/30 03:00:56;;;;;;;5.47;4.83;;;8.80;99.90;;;;;;488549;243;27788;-72
2022/03/30 03:02:57;;;;;;;5.53;5.00;;;8.80;99.90;;;;;;488531;243;27540;-72
2022/03/30 03:05:07;;;;;;;5.70;5.20;;;8.80;99.90;;;;;;488559;243;28066;-72
2022/03/30 03:07:09;;;;;;;5.43;4.93;;;8.80;99.90;;;;;;488504;243;28382;-72
2022/03/30 03:09:10;;;;;;;5.80;4.93;;;8.70;99.90;;;;;;488512;243;28314;-72
2022/03/30 03:11:14;;;;;;;5.60;5.00;;;8.80;99.90;;;;;;488510;243;28438;-72
2022/03/30 03:13:16;;;;;;;9.17;4.90;;;8.80;99.90;;;;;;488567;243;27587;-72
2022/03/30 03:15:17;;;;;;;6.03;4.97;;;8.80;99.90;;;;;;488523;243;27942;-72
2022/03/30 03:19:28;;;;;;;6.03;5.13;;;8.80;99.90;;;;;;488613;243;27773;-72
2022/03/30 03:21:29;;;;;;;5.80;5.20;;;8.80;99.90;;;;;;488406;243;28013;-73
2022/03/30 03:23:30;;;;;;;7.10;5.43;;;8.80;99.90;;;;;;488148;243;27996;-72
2022/03/30 03:25:35;;;;;;;7.60;5.20;;;8.80;99.90;;;;;;488383;243;27823;-72
2022/03/30 03:27:39;;;;;;;5.27;4.67;;;8.80;99.90;;;;;;488549;243;27847;-73
2022/03/30 03:29:40;;;;;;;6.30;4.93;;;8.80;99.90;;;;;;488615;243;27938;-72
2022/03/30 03:31:43;;;;;;;5.57;5.07;;;8.80;99.90;;;;;;488585;243;27576;-73
2022/03/30 03:33:45;;;;;;;8.43;5.17;;;8.70;99.90;;;;;;488574;243;28074;-72
2022/03/30 03:35:47;;;;;;;6.83;5.40;;;8.60;99.90;;;;;;488493;243;28353;-72
2022/03/30 03:37:47;;;;;;;7.63;5.50;;;8.60;99.90;;;;;;488566;243;28273;-72
2022/03/30 03:39:49;;;;;;;5.57;5.07;;;8.60;99.90;;;;;;488590;243;28290;-72
2022/03/30 03:41:51;;;;;;;6.80;5.60;;;8.70;99.90;;;;;;488559;243;27713;-72
2022/03/30 03:43:52;;;;;;;7.03;5.30;;;8.70;99.90;;;;;;488567;243;27888;-72
2022/03/30 03:45:53;;;;;;;7.67;5.80;;;8.70;99.90;;;;;;488534;243;27756;-73
2022/03/30 03:47:54;;;;;;;7.33;5.50;;;8.70;99.90;;;;;;488558;243;27807;-72
2022/03/30 03:49:59;;;;;;;6.03;5.43;;;8.70;99.90;;;;;;488580;243;27878;-71
2022/03/30 03:52:00;;;;;;;9.20;6.60;;;8.70;99.90;;;;;;488536;243;27986;-73
2022/03/30 03:54:01;;;;;;;11.07;6.23;;;8.70;99.90;;;;;;488573;243;27817;-72
2022/03/30 03:56:02;;;;;;;5.67;5.07;;;8.70;99.90;;;;;;488543;243;28232;-72
2022/03/30 03:58:16;;;;;;;8.33;5.70;;;8.70;99.90;;;;;;488558;243;28458;-72
2022/03/30 04:00:17;;;;;;;7.97;6.30;;;8.80;99.90;;;;;;488563;243;27565;-72
2022/03/30 04:02:21;;;;;;;8.17;6.43;;;8.70;99.90;;;;;;488536;243;27906;-73
2022/03/30 04:04:23;;;;;;;9.33;6.27;;;8.70;99.90;;;;;;488551;243;27415;-72
2022/03/30 04:08:48;;;;;;;7.53;6.00;;;8.80;99.90;;;;;;488591;243;28422;-72
2022/03/30 04:10:55;;;;;;;7.30;5.73;;;8.90;99.90;;;;;;488486;243;28345;-72
2022/03/30 04:12:56;;;;;;;6.40;5.47;;;8.90;99.90;;;;;;488545;243;27961;-72
2022/03/30 04:14:57;;;;;;;7.30;5.67;;;8.90;99.90;;;;;;488551;243;27834;-72
2022/03/30 04:17:01;;;;;;;6.53;5.40;;;8.90;99.90;;;;;;488513;243;27962;-72
2022/03/30 04:19:03;;;;;;;10.20;6.00;;;8.90;99.90;;;;;;488552;243;27634;-73
2022/03/30 04:21:04;;;;;;;6.00;5.30;;;8.90;99.90;;;;;;488540;243;27968;-72
2022/03/30 04:23:05;;;;;;;6.80;5.47;;;8.90;99.90;;;;;;488536;243;27985;-71
2022/03/30 04:25:06;;;;;;;6.97;5.70;;;8.90;99.90;;;;;;488525;243;27887;-75
2022/03/30 04:27:08;;;;;;;6.07;4.70;;;8.90;99.90;;;;;;488494;243;27726;-72
2022/03/30 04:29:09;;;;;;;8.50;5.50;;;8.90;99.90;;;;;;488480;243;28404;-72
2022/03/30 04:31:13;;;;;;;8.40;5.20;;;8.80;99.90;;;;;;488476;243;28906;-72
2022/03/30 04:33:15;;;;;;;8.00;5.73;;;8.80;99.90;;;;;;488546;243;27511;-71
2022/03/30 04:35:18;;;;;;;8.57;5.97;;;8.80;99.90;;;;;;488518;243;27855;-72
2022/03/30 04:37:17;;;;;;;6.40;5.73;;;8.80;99.90;;;;;;488431;243;27841;-73
2022/03/30 04:39:27;;;;;;;7.53;6.70;;;8.80;99.90;;;;;;488503;243;29079;-72
2022/03/30 04:41:28;;;;;;;10.13;6.93;;;8.80;99.90;;;;;;488543;243;27882;-71
2022/03/30 04:43:30;;;;;;;9.10;6.37;;;8.80;99.90;;;;;;488579;243;27607;-71
2022/03/30 04:45:31;;;;;;;11.80;8.10;;;8.80;99.90;;;;;;488535;243;27982;-72
2022/03/30 04:47:32;;;;;;;10.97;7.47;;;8.80;99.90;;;;;;488528;243;27618;-73
2022/03/30 04:49:33;;;;;;;10.73;7.87;;;8.80;99.90;;;;;;488526;243;27648;-72
2022/03/30 04:51:35;;;;;;;14.30;7.80;;;8.80;99.90;;;;;;488514;243;28445;-72
2022/03/30 04:53:36;;;;;;;10.50;7.93;;;8.80;99.90;;;;;;488524;243;28390;-72
2022/03/30 04:55:37;;;;;;;14.87;8.43;;;8.80;99.90;;;;;;488514;243;27933;-71
2022/03/30 04:57:40;;;;;;;10.63;8.90;;;8.80;99.90;;;;;;488511;243;27832;-72
2022/03/30 04:59:40;;;;;;;9.07;7.50;;;8.80;99.90;;;;;;488446;243;27995;-72
2022/03/30 05:03:51;;;;;;;9.03;8.00;;;8.90;99.90;;;;;;488453;243;27886;-73
2022/03/30 05:05:53;;;;;;;7.47;6.77;;;8.90;99.90;;;;;;488463;243;27860;-72
2022/03/30 05:10:05;;;;;;;9.20;6.60;;;9.00;99.90;;;;;;488548;243;27990;-72
2022/03/30 05:12:06;;;;;;;9.37;7.23;;;9.00;99.90;;;;;;488485;243;27758;-72
2022/03/30 05:14:07;;;;;;;7.40;6.40;;;9.00;99.90;;;;;;488488;243;27545;-72
2022/03/30 05:16:08;;;;;;;9.87;8.00;;;9.00;99.90;;;;;;488495;243;28366;-71
2022/03/30 05:20:14;;;;;;;12.63;8.37;;;8.90;99.90;;;;;;488552;243;27936;-75
2022/03/30 05:22:15;;;;;;;12.07;8.40;;;8.90;99.90;;;;;;488537;243;27599;-72
2022/03/30 05:24:25;;;;;;;10.80;7.80;;;8.90;99.90;;;;;;488533;243;27766;-72
2022/03/30 05:26:28;;;;;;;10.07;7.83;;;8.90;99.90;;;;;;488603;243;27765;-71
2022/03/30 05:28:28;;;;;;;7.73;7.03;;;8.90;99.90;;;;;;488460;243;27939;-72
2022/03/30 05:30:29;;;;;;;11.83;8.13;;;8.80;99.90;;;;;;488444;243;28278;-73
2022/03/30 05:32:30;;;;;;;18.50;10.47;;;8.80;99.90;;;;;;488528;243;28653;-74
2022/03/30 05:36:48;;;;;;;16.40;12.30;;;8.60;99.90;;;;;;488601;243;28254;-72
2022/03/30 05:38:50;;;;;;;16.17;12.50;;;8.40;99.90;;;;;;488558;243;28128;-72
2022/03/30 05:40:50;;;;;;;25.60;13.57;;;8.30;99.90;;;;;;488453;243;28298;-72
2022/03/30 05:42:51;;;;;;;20.03;13.20;;;8.30;99.90;;;;;;488566;243;27852;-72
2022/03/30 05:44:53;;;;;;;21.73;14.40;;;8.20;99.90;;;;;;488579;243;27408;-71
2022/03/30 05:47:00;;;;;;;22.70;14.60;;;8.20;99.90;;;;;;488577;243;27768;-73
2022/03/30 05:49:01;;;;;;;25.47;15.13;;;8.20;99.90;;;;;;488582;243;27877;-73
2022/03/30 05:51:02;;;;;;;23.47;15.20;;;8.10;99.90;;;;;;488600;243;28742;-71
2022/03/30 05:53:04;;;;;;;26.70;17.37;;;8.00;99.90;;;;;;488558;243;28341;-72
2022/03/30 05:55:05;;;;;;;32.80;17.57;;;7.80;99.90;;;;;;488519;243;28306;-71
2022/03/30 05:57:07;;;;;;;30.17;18.63;;;7.70;99.90;;;;;;488528;243;27847;-72
2022/03/30 05:59:07;;;;;;;32.27;20.50;;;7.50;99.90;;;;;;488490;243;27971;-72
2022/03/30 06:01:09;;;;;;;28.90;18.17;;;7.40;99.90;;;;;;488500;243;27731;-71
2022/03/30 06:03:13;;;;;;;33.90;19.93;;;7.50;99.90;;;;;;488513;242;27819;-73
2022/03/30 06:05:14;;;;;;;35.53;21.40;;;7.20;99.90;;;;;;488579;243;27536;-72
2022/03/30 06:07:15;;;;;;;43.10;24.07;;;7.00;99.90;;;;;;488544;243;27522;-72
2022/03/30 06:09:16;;;;;;;48.83;21.67;;;6.90;99.90;;;;;;488529;242;27364;-71
2022/03/30 06:11:18;;;;;;;41.20;22.23;;;6.90;99.90;;;;;;488505;243;27861;-72
2022/03/30 06:13:19;;;;;;;41.03;22.57;;;6.90;99.90;;;;;;488525;243;27951;-78
2022/03/30 06:15:20;;;;;;;39.80;23.77;;;6.90;99.90;;;;;;488513;243;28426;-72
2022/03/30 06:17:22;;;;;;;42.47;25.23;;;6.80;99.90;;;;;;488557;243;28469;-71
2022/03/30 06:19:23;;;;;;;40.20;23.37;;;6.70;99.90;;;;;;488548;242;28386;-72
2022/03/30 06:21:24;;;;;;;45.90;23.30;;;6.60;99.90;;;;;;488517;243;27989;-73
2022/03/30 06:23:25;;;;;;;44.27;23.37;;;6.50;99.90;;;;;;488513;243;28344;-74
2022/03/30 06:25:27;;;;;;;41.30;23.00;;;6.60;99.90;;;;;;488509;243;28768;-73
2022/03/30 06:27:28;;;;;;;43.00;23.63;;;6.50;99.90;;;;;;488493;243;28361;-72
2022/03/30 06:29:29;;;;;;;45.53;23.57;;;6.50;99.90;;;;;;488564;243;27952;-72
2022/03/30 06:31:31;;;;;;;52.13;26.20;;;6.50;99.90;;;;;;488539;243;27696;-72
2022/03/30 06:33:32;;;;;;;44.43;24.70;;;6.40;99.90;;;;;;488542;243;27994;-75
2022/03/30 06:35:33;;;;;;;44.17;24.83;;;6.40;99.90;;;;;;488523;243;28071;-72
2022/03/30 06:37:34;;;;;;;39.50;23.30;;;6.40;99.90;;;;;;488525;243;27877;-72
2022/03/30 06:39:35;;;;;;;44.10;24.33;;;6.50;99.90;;;;;;488538;243;28239;-72
2022/03/30 06:41:38;;;;;;;43.77;25.30;;;6.40;99.90;;;;;;488538;243;28061;-72
2022/03/30 06:43:42;;;;;;;47.80;25.10;;;6.40;99.90;;;;;;488433;243;29364;-73
2022/03/30 06:45:39;;;;;;;46.25;25.73;;;6.40;99.90;;;;;;488283;243;27819;-72
2022/03/30 06:47:41;;;;;;;43.42;24.35;;;6.40;99.90;;;;;;488520;243;27408;-73
2022/03/30 06:49:42;;;;;;;45.50;24.85;;;6.40;99.90;;;;;;488550;243;27420;-74
2022/03/30 06:51:43;;;;;;;49.73;25.10;;;6.40;99.90;;;;;;488558;242;27455;-72
2022/03/30 06:53:44;;;;;;;45.08;24.98;;;6.40;99.90;;;;;;488487;243;28494;-73
2022/03/30 06:55:50;;;;;;;46.57;24.50;;;6.50;99.90;;;;;;488558;242;28579;-72
2022/03/30 06:57:51;;;;;;;44.50;23.77;;;6.50;99.90;;;;;;488573;243;28722;-71
2022/03/30 06:59:52;;;;;;;45.03;22.50;;;6.50;99.90;;;;;;488580;243;28221;-72
2022/03/30 07:01:59;;;;;;;42.67;22.37;;;6.50;99.90;;;;;;488514;242;28315;-73
2022/03/30 07:04:01;;;;;;;36.47;20.20;;;6.50;99.90;;;;;;488530;243;28115;-71
2022/03/30 07:06:06;;;;;;;41.00;22.23;;;6.60;99.90;;;;;;488369;243;29440;-73
2022/03/30 07:10:23;;;;;;;40.80;22.70;;;6.60;99.90;;;;;;489005;242;27753;-70
2022/03/30 07:12:24;;;;;;;46.50;23.67;;;6.60;99.90;;;;;;488479;242;27779;-74
2022/03/30 07:14:25;;;;;;;38.30;22.27;;;6.60;99.90;;;;;;488570;243;28454;-70
2022/03/30 07:16:27;;;;;;;44.67;23.37;;;6.70;99.90;;;;;;488563;243;28375;-71
2022/03/30 07:18:28;;;;;;;40.10;21.40;;;6.70;99.90;;;;;;488552;243;28191;-70
2022/03/30 07:20:32;;;;;;;40.60;21.87;;;6.70;99.90;;;;;;488516;243;27748;-73
2022/03/30 07:22:30;;;;;;;41.30;21.83;;;6.70;99.90;;;;;;488482;243;27984;-70
2022/03/30 07:24:32;;;;;;;42.37;21.90;;;6.70;99.90;;;;;;488537;243;27872;-72
2022/03/30 07:26:33;;;;;;;35.20;20.57;;;6.70;99.90;;;;;;488518;243;28006;-73
2022/03/30 07:28:37;;;;;;;37.80;21.40;;;6.80;99.90;;;;;;488496;243;28000;-73
2022/03/30 07:30:37;;;;;;;40.70;22.83;;;6.80;99.90;;;;;;489433;242;27894;-73
2022/03/30 07:32:38;;;;;;;42.67;22.17;;;6.80;99.90;;;;;;489543;242;28037;-74
2022/03/30 07:34:38;;;;;;;39.53;21.43;;;6.80;99.90;;;;;;489581;241;28158;-71
2022/03/30 07:36:39;;;;;;;39.97;21.73;;;6.80;99.90;;;;;;489074;241;28388;-71
2022/03/30 07:38:40;;;;;;;43.33;21.60;;;6.70;99.90;;;;;;488478;243;27730;-73
2022/03/30 07:40:42;;;;;;;40.23;21.50;;;6.80;99.90;;;;;;488507;243;27932;-73
2022/03/30 07:42:43;;;;;;;36.90;22.40;;;6.70;99.90;;;;;;488495;242;27992;-72
2022/03/30 07:44:44;;;;;;;40.63;23.23;;;6.70;99.90;;;;;;488526;243;27412;-70
2022/03/30 07:46:48;;;;;;;41.70;22.60;;;6.80;99.90;;;;;;488550;243;27946;-71
2022/03/30 07:48:47;;;;;;;42.10;22.03;;;6.80;99.90;;;;;;488330;243;27961;-71
2022/03/30 07:50:48;;;;;;;36.30;20.83;;;6.90;99.90;;;;;;488555;243;27596;-71
2022/03/30 07:52:50;;;;;;;42.00;22.77;;;6.90;99.90;;;;;;488545;243;28118;-71
2022/03/30 07:54:52;;;;;;;40.67;23.13;;;6.80;99.90;;;;;;488491;243;28206;-73
2022/03/30 07:56:52;;;;;;;37.77;20.90;;;6.80;99.90;;;;;;488316;243;27779;-71
2022/03/30 07:58:56;;;;;;;36.23;20.17;;;6.90;99.90;;;;;;488485;243;27876;-73
2022/03/30 08:00:54;;;;;;;36.43;20.67;;;6.90;99.90;;;;;;488390;243;27682;-70
2022/03/30 08:02:56;;;;;;;38.33;22.00;;;6.90;99.90;;;;;;488526;243;27857;-71
2022/03/30 08:04:57;;;;;;;33.00;19.83;;;6.90;99.90;;;;;;488529;243;27863;-70
2022/03/30 08:06:58;;;;;;;38.00;21.37;;;6.80;99.90;;;;;;488513;243;28370;-70
2022/03/30 08:09:05;;;;;;;43.00;22.23;;;6.80;99.90;;;;;;488519;243;28504;-73
2022/03/30 08:11:07;;;;;;;37.80;21.10;;;6.80;99.90;;;;;;488531;243;27857;-71
2022/03/30 08:13:10;;;;;;;34.50;20.77;;;6.80;99.90;;;;;;488457;243;28329;-70
2022/03/30 08:15:13;;;;;;;34.90;20.30;;;6.80;99.90;;;;;;488463;243;29033;-70
2022/03/30 08:17:15;;;;;;;38.97;21.00;;;6.70;99.90;;;;;;489611;242;27835;-71
2022/03/30 08:19:16;;;;;;;36.53;20.40;;;6.70;99.90;;;;;;489568;242;28520;-73
2022/03/30 08:23:39;;;;;;;34.83;19.50;;;6.80;99.90;;;;;;489473;242;28055;-71
2022/03/30 08:25:40;;;;;;;33.33;19.23;;;6.80;99.90;;;;;;488477;242;27952;-71
2022/03/30 08:27:41;;;;;;;32.00;18.73;;;6.80;99.90;;;;;;488538;243;27869;-70
2022/03/30 08:29:44;;;;;;;25.67;15.70;;;6.80;99.90;;;;;;488538;243;27910;-71
2022/03/30 08:31:44;;;;;;;27.93;16.80;;;7.00;99.90;;;;;;488419;243;28210;-73
2022/03/30 08:33:45;;;;;;;32.67;18.37;;;6.90;99.90;;;;;;488524;242;27809;-73
2022/03/30 08:35:46;;;;;;;30.03;19.07;;;6.90;99.90;;;;;;488505;243;27413;-74
2022/03/30 08:37:47;;;;;;;30.90;18.73;;;6.80;99.90;;;;;;488478;243;27701;-72
2022/03/30 08:39:49;;;;;;;33.20;19.77;;;6.80;99.90;;;;;;488477;243;28239;-70
2022/03/30 08:41:50;;;;;;;31.63;19.13;;;6.80;99.90;;;;;;488519;243;28485;-75
2022/03/30 08:43:51;;;;;;;33.67;18.77;;;6.80;99.90;;;;;;488514;243;27554;-73
2022/03/30 08:45:55;;;;;;;31.53;18.83;;;7.00;99.90;;;;;;488495;242;27793;-74
2022/03/30 08:50:03;;;;;;;32.90;18.90;;;7.00;99.90;;;;;;464186;255;27755;-71
2022/03/30 08:52:05;;;;;;;31.00;18.40;;;6.90;99.90;;;;;;466410;254;27759;-71
2022/03/30 08:54:06;;;;;;;30.73;19.30;;;7.00;99.90;;;;;;467166;253;28597;-73
2022/03/30 08:56:07;;;;;;;29.43;17.20;;;7.00;99.90;;;;;;467659;253;28523;-71
2022/03/30 08:58:08;;;;;;;29.33;18.80;;;7.10;99.90;;;;;;467711;253;28154;-71
2022/03/30 09:00:23;;;;;;;30.20;17.60;;;6.90;99.90;;;;;;467658;253;27996;-73
2022/03/30 09:02:24;;;;;;;31.07;18.63;;;7.10;99.90;;;;;;467729;253;27839;-71
2022/03/30 09:04:28;;;;;;;26.83;16.67;;;6.90;99.90;;;;;;467667;253;28524;-73
2022/03/30 09:06:30;;;;;;;27.43;17.50;;;6.90;99.90;;;;;;467696;253;28042;-71
2022/03/30 09:08:31;;;;;;;26.77;17.03;;;6.80;99.90;;;;;;467699;253;27891;-72
2022/03/30 09:10:35;;;;;;;28.40;16.30;;;6.90;99.90;;;;;;467732;253;28439;-71
2022/03/30 09:12:36;;;;;;;29.43;17.33;;;6.80;99.90;;;;;;467731;253;27994;-71
2022/03/30 09:14:53;;;;;;;27.50;15.33;;;6.90;99.90;;;;;;467714;253;28509;-71
2022/03/30 09:18:58;;;;;;;21.80;14.23;;;7.10;99.90;;;;;;481422;246;27762;-71
2022/03/30 09:21:18;;;;;;;27.17;16.23;;;7.10;99.90;;;;;;481454;245;27959;-71
2022/03/30 09:23:19;;;;;;;22.83;13.97;;;7.10;99.90;;;;;;481456;246;27889;-72
2022/03/30 09:25:32;;;;;;;24.80;14.53;;;7.00;99.90;;;;;;481464;246;27839;-71
2022/03/30 09:27:34;;;;;;;24.50;15.17;;;7.10;99.90;;;;;;481451;246;27593;-71
2022/03/30 09:29:37;;;;;;;26.00;15.93;;;7.10;99.90;;;;;;481441;246;28666;-74
2022/03/30 09:31:42;;;;;;;25.73;15.50;;;6.90;99.90;;;;;;481500;246;28172;-71
2022/03/30 09:33:50;;;;;;;24.43;14.50;;;6.90;99.90;;;;;;481146;247;29128;-71
2022/03/30 09:35:51;;;;;;;22.83;15.40;;;6.90;99.90;;;;;;481440;246;28176;-71
2022/03/30 09:37:52;;;;;;;22.63;13.50;;;7.00;99.90;;;;;;481464;246;28320;-71
2022/03/30 09:39:54;;;;;;;22.83;15.37;;;7.20;99.90;;;;;;481406;246;27864;-73
2022/03/30 09:41:56;;;;;;;23.07;13.93;;;7.10;99.90;;;;;;481393;246;27949;-73
2022/03/30 09:43:56;;;;;;;28.57;15.60;;;7.20;99.90;;;;;;481369;246;27620;-73
2022/03/30 09:50:32;;;;;;;26.20;16.27;;;7.20;99.90;;;;;;474330;250;27955;-71
2022/03/30 09:52:33;;;;;;;26.73;16.90;;;7.40;99.90;;;;;;474317;250;27677;-70
2022/03/30 09:54:34;;;;;;;29.50;17.30;;;7.30;99.90;;;;;;474311;250;28148;-71
2022/03/30 09:56:43;;;;;;;30.50;18.70;;;7.10;99.90;;;;;;474333;250;27877;-72
2022/03/30 09:58:43;;;;;;;30.50;18.17;;;7.10;99.90;;;;;;474270;250;27677;-70
2022/03/30 10:00:48;;;;;;;30.57;18.80;;;7.10;99.90;;;;;;474356;250;28055;-73
2022/03/30 10:02:45;;;;;;;34.50;19.37;;;7.00;99.90;;;;;;474226;250;28524;-71
2022/03/30 10:04:59;;;;;;;30.03;18.23;;;7.10;99.90;;;;;;474330;250;28453;-73
2022/03/30 10:06:59;;;;;;;30.10;18.33;;;7.10;99.90;;;;;;474295;250;28488;-73
2022/03/30 10:09:02;;;;;;;30.40;17.63;;;7.10;99.90;;;;;;474315;250;28413;-73
2022/03/30 10:11:03;;;;;;;33.00;18.33;;;7.20;99.90;;;;;;474332;250;27761;-73
2022/03/30 10:13:05;;;;;;;37.03;20.37;;;7.20;99.90;;;;;;474333;250;28430;-73
2022/03/30 10:15:05;;;;;;;34.37;20.00;;;6.90;99.90;;;;;;474289;250;28134;-73
2022/03/30 10:17:20;;;;;;;32.50;19.80;;;7.10;99.90;;;;;;474289;250;28379;-72
2022/03/30 10:19:21;;;;;;;36.30;19.50;;;7.10;99.90;;;;;;474281;250;27950;-72
2022/03/30 10:21:22;;;;;;;36.93;20.40;;;7.10;99.90;;;;;;474289;250;28696;-75
2022/03/30 10:23:24;;;;;;;34.87;20.00;;;7.30;99.90;;;;;;474297;250;28539;-72
2022/03/30 10:25:25;;;;;;;33.90;19.93;;;7.20;99.90;;;;;;476962;247;27726;-73
2022/03/30 10:29:30;;;;;;;35.40;20.10;;;7.30;99.90;;;;;;481478;246;27389;-73
2022/03/30 10:31:32;;;;;;;35.90;19.30;;;7.30;99.90;;;;;;481412;246;28390;-73
2022/03/30 10:33:45;;;;;;;32.80;19.60;;;7.40;99.90;;;;;;481413;246;28435;-73
2022/03/30 10:35:47;;;;;;;31.07;19.30;;;7.40;99.90;;;;;;481428;246;27988;-73
2022/03/30 10:37:50;;;;;;;32.47;19.27;;;7.50;99.90;;;;;;481413;246;28043;-73
2022/03/30 10:39:52;;;;;;;36.03;20.40;;;7.40;99.90;;;;;;481478;246;27874;-73
2022/03/30 10:41:53;;;;;;;35.33;21.87;;;7.30;99.90;;;;;;481400;246;28159;-73
2022/03/30 10:43:55;;;;;;;37.77;22.43;;;7.40;99.90;;;;;;481479;246;27816;-73
2022/03/30 10:45:58;;;;;;;36.60;20.43;;;7.30;99.90;;;;;;481438;246;28390;-73
2022/03/30 10:47:59;;;;;;;37.87;22.73;;;7.30;99.90;;;;;;481477;246;27416;-76
2022/03/30 10:50:02;;;;;;;35.10;19.67;;;7.40;99.90;;;;;;481449;246;28024;-73
2022/03/30 10:54:06;;;;;;;37.73;21.23;;;7.50;99.90;;;;;;481411;246;27692;-73
2022/03/30 10:56:13;;;;;;;34.83;20.80;;;7.40;99.90;;;;;;481461;246;28356;-73
2022/03/30 10:58:15;;;;;;;37.30;21.50;;;7.40;99.90;;;;;;481457;246;28212;-73
2022/03/30 11:00:21;;;;;;;38.67;22.67;;;7.40;99.90;;;;;;481478;246;28463;-73
2022/03/30 11:02:23;;;;;;;34.40;20.03;;;7.30;99.90;;;;;;481452;246;27706;-73
2022/03/30 11:04:25;;;;;;;38.73;21.80;;;7.30;99.90;;;;;;481423;246;28265;-73
2022/03/30 11:06:26;;;;;;;36.00;20.27;;;7.10;99.90;;;;;;481435;246;27626;-70
2022/03/30 11:08:36;;;;;;;33.60;19.77;;;7.10;99.90;;;;;;481458;247;28186;-73
2022/03/30 11:10:37;;;;;;;34.23;20.53;;;7.40;99.90;;;;;;481440;246;27794;-71
2022/03/30 11:12:44;;;;;;;35.43;21.10;;;7.20;99.90;;;;;;481435;246;28226;-73